sensor_id;sensor_type;location;lat;lon;timestamp;P1;durP1;ratioP1;P2;durP2;ratioP2
27265;SDS011;14766;51.380;13.762;2023-06-10T00:00:00;7.22;;;5.18;;
27265;SDS011;14766;51.380;13.762;2023-06-10T00:02:37;5.72;;;5.03;;
27265;SDS011;14766;51.380;13.762;2023-06-10T00:05:06;8.00;;;5.00;;
27265;SDS011;14766;51.380;13.762;2023-06-10T00:07:38;7.45;;;4.93;;
27265;SDS011;14766;51.380;13.762;2023-06-10T00:10:08;6.50;;;5.10;;
27265;SDS011;14766;51.380;13.762;2023-06-10T00:12:37;7.03;;;5.47;;
27265;SDS011;14766;51.380;13.762;2023-06-10T00:15:05;6.97;;;5.75;;
27265;SDS011;14766;51.380;13.762;2023-06-10T00:17:35;6.13;;;4.80;;
27265;SDS011;14766;51.380;13.762;2023-06-10T00:20:07;5.40;;;4.88;;
27265;SDS011;14766;51.380;13.762;2023-06-10T00:22:39;8.13;;;5.28;;
27265;SDS011;14766;51.380;13.762;2023-06-10T00:25:09;7.38;;;5.00;;
27265;SDS011;14766;51.380;13.762;2023-06-10T00:27:37;6.78;;;5.43;;
27265;SDS011;14766;51.380;13.762;2023-06-10T00:30:04;6.90;;;5.55;;
27265;SDS011;14766;51.380;13.762;2023-06-10T00:32:34;6.18;;;5.57;;
27265;SDS011;14766;51.380;13.762;2023-06-10T00:35:02;6.13;;;5.53;;
27265;SDS011;14766;51.380;13.762;2023-06-10T00:37:34;6.22;;;5.35;;
27265;SDS011;14766;51.380;13.762;2023-06-10T00:40:02;7.35;;;5.68;;
27265;SDS011;14766;51.380;13.762;2023-06-10T00:42:31;7.90;;;5.78;;
27265;SDS011;14766;51.380;13.762;2023-06-10T00:44:59;6.75;;;5.68;;
27265;SDS011;14766;51.380;13.762;2023-06-10T00:47:26;5.60;;;5.05;;
27265;SDS011;14766;51.380;13.762;2023-06-10T00:49:55;6.57;;;4.78;;
27265;SDS011;14766;51.380;13.762;2023-06-10T00:52:24;7.15;;;5.30;;
27265;SDS011;14766;51.380;13.762;2023-06-10T00:54:54;5.00;;;4.53;;
27265;SDS011;14766;51.380;13.762;2023-06-10T00:57:22;8.48;;;5.68;;
27265;SDS011;14766;51.380;13.762;2023-06-10T00:59:49;5.40;;;4.90;;
27265;SDS011;14766;51.380;13.762;2023-06-10T01:02:18;7.07;;;5.25;;
27265;SDS011;14766;51.380;13.762;2023-06-10T01:04:45;5.93;;;5.25;;
27265;SDS011;14766;51.380;13.762;2023-06-10T01:09:56;8.00;;;5.00;;
27265;SDS011;14766;51.380;13.762;2023-06-10T01:12:52;7.38;;;5.45;;
27265;SDS011;14766;51.380;13.762;2023-06-10T01:15:35;5.97;;;5.38;;
27265;SDS011;14766;51.380;13.762;2023-06-10T01:18:03;6.38;;;5.35;;
27265;SDS011;14766;51.380;13.762;2023-06-10T01:20:36;6.82;;;5.30;;
27265;SDS011;14766;51.380;13.762;2023-06-10T01:23:07;7.63;;;5.32;;
27265;SDS011;14766;51.380;13.762;2023-06-10T01:25:36;7.35;;;6.13;;
27265;SDS011;14766;51.380;13.762;2023-06-10T01:28:07;9.75;;;6.97;;
27265;SDS011;14766;51.380;13.762;2023-06-10T01:30:41;9.13;;;7.05;;
27265;SDS011;14766;51.380;13.762;2023-06-10T01:36:02;6.80;;;6.10;;
27265;SDS011;14766;51.380;13.762;2023-06-10T01:38:30;6.68;;;5.97;;
27265;SDS011;14766;51.380;13.762;2023-06-10T01:41:03;7.35;;;5.38;;
27265;SDS011;14766;51.380;13.762;2023-06-10T01:43:37;6.18;;;5.53;;
27265;SDS011;14766;51.380;13.762;2023-06-10T01:46:06;7.60;;;5.63;;
27265;SDS011;14766;51.380;13.762;2023-06-10T01:48:33;6.28;;;5.43;;
27265;SDS011;14766;51.380;13.762;2023-06-10T01:51:01;7.85;;;5.80;;
27265;SDS011;14766;51.380;13.762;2023-06-10T01:53:28;7.53;;;5.60;;
27265;SDS011;14766;51.380;13.762;2023-06-10T01:55:55;6.72;;;5.75;;
27265;SDS011;14766;51.380;13.762;2023-06-10T01:58:22;7.10;;;6.18;;
27265;SDS011;14766;51.380;13.762;2023-06-10T02:00:49;6.72;;;6.03;;
27265;SDS011;14766;51.380;13.762;2023-06-10T02:03:18;6.97;;;6.30;;
27265;SDS011;14766;51.380;13.762;2023-06-10T02:05:46;6.75;;;5.97;;
27265;SDS011;14766;51.380;13.762;2023-06-10T02:08:15;7.15;;;5.85;;
27265;SDS011;14766;51.380;13.762;2023-06-10T02:10:42;6.72;;;5.72;;
27265;SDS011;14766;51.380;13.762;2023-06-10T02:13:09;7.55;;;5.93;;
27265;SDS011;14766;51.380;13.762;2023-06-10T02:15:38;6.97;;;5.88;;
27265;SDS011;14766;51.380;13.762;2023-06-10T02:18:05;6.90;;;5.65;;
27265;SDS011;14766;51.380;13.762;2023-06-10T02:20:32;8.38;;;6.45;;
27265;SDS011;14766;51.380;13.762;2023-06-10T02:23:02;6.57;;;5.72;;
27265;SDS011;14766;51.380;13.762;2023-06-10T02:25:29;7.45;;;5.95;;
27265;SDS011;14766;51.380;13.762;2023-06-10T02:27:57;7.90;;;6.25;;
27265;SDS011;14766;51.380;13.762;2023-06-10T02:30:24;7.50;;;6.25;;
27265;SDS011;14766;51.380;13.762;2023-06-10T02:32:51;7.18;;;6.43;;
27265;SDS011;14766;51.380;13.762;2023-06-10T02:35:19;10.38;;;6.60;;
27265;SDS011;14766;51.380;13.762;2023-06-10T02:37:47;7.18;;;6.25;;
27265;SDS011;14766;51.380;13.762;2023-06-10T02:40:15;8.48;;;6.47;;
27265;SDS011;14766;51.380;13.762;2023-06-10T02:42:42;7.50;;;6.18;;
27265;SDS011;14766;51.380;13.762;2023-06-10T02:45:10;8.13;;;6.07;;
27265;SDS011;14766;51.380;13.762;2023-06-10T02:47:41;7.50;;;6.22;;
27265;SDS011;14766;51.380;13.762;2023-06-10T02:50:10;7.35;;;6.57;;
27265;SDS011;14766;51.380;13.762;2023-06-10T02:52:51;7.13;;;6.05;;
27265;SDS011;14766;51.380;13.762;2023-06-10T02:55:18;8.05;;;6.28;;
27265;SDS011;14766;51.380;13.762;2023-06-10T02:57:51;7.38;;;5.93;;
27265;SDS011;14766;51.380;13.762;2023-06-10T03:00:21;7.57;;;6.05;;
27265;SDS011;14766;51.380;13.762;2023-06-10T03:02:49;7.82;;;6.30;;
27265;SDS011;14766;51.380;13.762;2023-06-10T03:05:21;7.63;;;6.82;;
27265;SDS011;14766;51.380;13.762;2023-06-10T03:07:51;6.75;;;6.05;;
27265;SDS011;14766;51.380;13.762;2023-06-10T03:10:19;7.65;;;6.03;;
27265;SDS011;14766;51.380;13.762;2023-06-10T03:12:46;8.13;;;6.32;;
27265;SDS011;14766;51.380;13.762;2023-06-10T03:15:15;8.25;;;6.40;;
27265;SDS011;14766;51.380;13.762;2023-06-10T03:17:43;7.60;;;6.10;;
27265;SDS011;14766;51.380;13.762;2023-06-10T03:20:11;8.98;;;6.70;;
27265;SDS011;14766;51.380;13.762;2023-06-10T03:22:44;6.60;;;5.70;;
27265;SDS011;14766;51.380;13.762;2023-06-10T03:25:11;6.78;;;6.07;;
27265;SDS011;14766;51.380;13.762;2023-06-10T03:27:43;6.28;;;5.68;;
27265;SDS011;14766;51.380;13.762;2023-06-10T03:30:12;7.93;;;6.35;;
27265;SDS011;14766;51.380;13.762;2023-06-10T03:32:41;8.27;;;6.65;;
27265;SDS011;14766;51.380;13.762;2023-06-10T03:35:11;6.57;;;5.95;;
27265;SDS011;14766;51.380;13.762;2023-06-10T03:37:39;7.88;;;6.35;;
27265;SDS011;14766;51.380;13.762;2023-06-10T03:40:07;8.52;;;6.10;;
27265;SDS011;14766;51.380;13.762;2023-06-10T03:42:37;7.05;;;6.30;;
27265;SDS011;14766;51.380;13.762;2023-06-10T03:45:05;7.13;;;6.40;;
27265;SDS011;14766;51.380;13.762;2023-06-10T03:47:34;8.13;;;6.47;;
27265;SDS011;14766;51.380;13.762;2023-06-10T03:50:07;9.35;;;6.53;;
27265;SDS011;14766;51.380;13.762;2023-06-10T03:52:35;7.82;;;6.43;;
27265;SDS011;14766;51.380;13.762;2023-06-10T03:55:05;7.50;;;6.70;;
27265;SDS011;14766;51.380;13.762;2023-06-10T03:57:33;8.52;;;6.55;;
27265;SDS011;14766;51.380;13.762;2023-06-10T04:00:00;9.05;;;7.07;;
27265;SDS011;14766;51.380;13.762;2023-06-10T04:02:40;9.13;;;7.65;;
27265;SDS011;14766;51.380;13.762;2023-06-10T04:05:30;8.98;;;7.65;;
27265;SDS011;14766;51.380;13.762;2023-06-10T04:07:57;8.48;;;7.40;;
27265;SDS011;14766;51.380;13.762;2023-06-10T04:10:24;10.13;;;7.65;;
27265;SDS011;14766;51.380;13.762;2023-06-10T04:12:53;9.93;;;7.07;;
27265;SDS011;14766;51.380;13.762;2023-06-10T04:15:22;9.43;;;7.20;;
27265;SDS011;14766;51.380;13.762;2023-06-10T04:17:51;8.68;;;7.32;;
27265;SDS011;14766;51.380;13.762;2023-06-10T04:20:22;8.23;;;7.15;;
27265;SDS011;14766;51.380;13.762;2023-06-10T04:22:49;9.45;;;7.43;;
27265;SDS011;14766;51.380;13.762;2023-06-10T04:25:16;9.90;;;7.80;;
27265;SDS011;14766;51.380;13.762;2023-06-10T04:27:43;11.35;;;8.20;;
27265;SDS011;14766;51.380;13.762;2023-06-10T04:30:12;10.18;;;7.50;;
27265;SDS011;14766;51.380;13.762;2023-06-10T04:32:40;10.57;;;7.72;;
27265;SDS011;14766;51.380;13.762;2023-06-10T04:35:13;12.27;;;8.00;;
27265;SDS011;14766;51.380;13.762;2023-06-10T04:37:41;10.63;;;6.93;;
27265;SDS011;14766;51.380;13.762;2023-06-10T04:40:10;8.75;;;7.13;;
27265;SDS011;14766;51.380;13.762;2023-06-10T04:42:37;9.48;;;7.40;;
27265;SDS011;14766;51.380;13.762;2023-06-10T04:45:05;9.65;;;7.28;;
27265;SDS011;14766;51.380;13.762;2023-06-10T04:47:34;7.30;;;6.53;;
27265;SDS011;14766;51.380;13.762;2023-06-10T04:50:01;13.98;;;6.85;;
27265;SDS011;14766;51.380;13.762;2023-06-10T04:52:29;7.68;;;6.88;;
27265;SDS011;14766;51.380;13.762;2023-06-10T04:54:57;10.05;;;6.60;;
27265;SDS011;14766;51.380;13.762;2023-06-10T04:57:25;10.20;;;6.45;;
27265;SDS011;14766;51.380;13.762;2023-06-10T04:59:53;10.48;;;7.18;;
27265;SDS011;14766;51.380;13.762;2023-06-10T05:02:21;9.07;;;6.63;;
27265;SDS011;14766;51.380;13.762;2023-06-10T05:04:48;11.38;;;7.35;;
27265;SDS011;14766;51.380;13.762;2023-06-10T05:07:16;10.40;;;6.72;;
27265;SDS011;14766;51.380;13.762;2023-06-10T05:09:44;7.55;;;6.53;;
27265;SDS011;14766;51.380;13.762;2023-06-10T05:12:13;7.68;;;6.50;;
27265;SDS011;14766;51.380;13.762;2023-06-10T05:14:40;8.70;;;7.20;;
27265;SDS011;14766;51.380;13.762;2023-06-10T05:17:07;10.80;;;7.55;;
27265;SDS011;14766;51.380;13.762;2023-06-10T05:19:34;8.73;;;6.78;;
27265;SDS011;14766;51.380;13.762;2023-06-10T05:22:03;9.20;;;7.43;;
27265;SDS011;14766;51.380;13.762;2023-06-10T05:24:30;8.75;;;7.20;;
27265;SDS011;14766;51.380;13.762;2023-06-10T05:26:57;8.02;;;7.18;;
27265;SDS011;14766;51.380;13.762;2023-06-10T05:29:25;8.05;;;6.90;;
27265;SDS011;14766;51.380;13.762;2023-06-10T05:31:53;9.40;;;7.40;;
27265;SDS011;14766;51.380;13.762;2023-06-10T05:34:20;7.95;;;6.78;;
27265;SDS011;14766;51.380;13.762;2023-06-10T05:36:48;8.07;;;7.03;;
27265;SDS011;14766;51.380;13.762;2023-06-10T05:39:15;8.88;;;6.90;;
27265;SDS011;14766;51.380;13.762;2023-06-10T05:41:42;8.88;;;6.88;;
27265;SDS011;14766;51.380;13.762;2023-06-10T05:44:10;7.80;;;6.65;;
27265;SDS011;14766;51.380;13.762;2023-06-10T05:46:39;9.25;;;6.78;;
27265;SDS011;14766;51.380;13.762;2023-06-10T05:49:07;7.95;;;7.03;;
27265;SDS011;14766;51.380;13.762;2023-06-10T05:51:35;7.55;;;6.53;;
27265;SDS011;14766;51.380;13.762;2023-06-10T05:54:04;7.05;;;6.32;;
27265;SDS011;14766;51.380;13.762;2023-06-10T05:56:31;6.63;;;5.97;;
27265;SDS011;14766;51.380;13.762;2023-06-10T05:58:58;8.63;;;6.93;;
27265;SDS011;14766;51.380;13.762;2023-06-10T06:01:25;7.22;;;6.28;;
27265;SDS011;14766;51.380;13.762;2023-06-10T06:03:52;7.22;;;6.53;;
27265;SDS011;14766;51.380;13.762;2023-06-10T06:06:19;6.78;;;6.10;;
27265;SDS011;14766;51.380;13.762;2023-06-10T06:08:50;6.95;;;6.00;;
27265;SDS011;14766;51.380;13.762;2023-06-10T06:11:17;6.80;;;5.93;;
27265;SDS011;14766;51.380;13.762;2023-06-10T06:13:44;7.45;;;6.57;;
27265;SDS011;14766;51.380;13.762;2023-06-10T06:16:11;7.72;;;6.72;;
27265;SDS011;14766;51.380;13.762;2023-06-10T06:18:38;8.82;;;6.88;;
27265;SDS011;14766;51.380;13.762;2023-06-10T06:21:06;7.40;;;6.40;;
27265;SDS011;14766;51.380;13.762;2023-06-10T06:23:33;8.27;;;6.82;;
27265;SDS011;14766;51.380;13.762;2023-06-10T06:26:00;9.85;;;7.55;;
27265;SDS011;14766;51.380;13.762;2023-06-10T06:28:27;10.57;;;7.20;;
27265;SDS011;14766;51.380;13.762;2023-06-10T06:30:57;7.57;;;6.03;;
27265;SDS011;14766;51.380;13.762;2023-06-10T06:33:24;6.32;;;5.68;;
27265;SDS011;14766;51.380;13.762;2023-06-10T06:35:53;6.95;;;6.25;;
27265;SDS011;14766;51.380;13.762;2023-06-10T06:38:21;9.73;;;6.75;;
27265;SDS011;14766;51.380;13.762;2023-06-10T06:40:48;7.35;;;6.57;;
27265;SDS011;14766;51.380;13.762;2023-06-10T06:43:15;8.43;;;6.57;;
27265;SDS011;14766;51.380;13.762;2023-06-10T06:46:02;7.88;;;6.30;;
27265;SDS011;14766;51.380;13.762;2023-06-10T06:48:30;8.27;;;7.07;;
27265;SDS011;14766;51.380;13.762;2023-06-10T06:50:58;7.20;;;6.50;;
27265;SDS011;14766;51.380;13.762;2023-06-10T06:53:25;7.00;;;6.30;;
27265;SDS011;14766;51.380;13.762;2023-06-10T06:55:58;7.00;;;6.20;;
27265;SDS011;14766;51.380;13.762;2023-06-10T06:58:25;7.03;;;6.30;;
27265;SDS011;14766;51.380;13.762;2023-06-10T07:00:53;7.15;;;6.45;;
27265;SDS011;14766;51.380;13.762;2023-06-10T07:03:21;7.93;;;6.60;;
27265;SDS011;14766;51.380;13.762;2023-06-10T07:05:48;7.80;;;7.00;;
27265;SDS011;14766;51.380;13.762;2023-06-10T07:08:15;7.70;;;6.22;;
27265;SDS011;14766;51.380;13.762;2023-06-10T07:10:42;6.65;;;5.97;;
27265;SDS011;14766;51.380;13.762;2023-06-10T07:13:10;7.00;;;6.30;;
27265;SDS011;14766;51.380;13.762;2023-06-10T07:15:41;7.20;;;6.15;;
27265;SDS011;14766;51.380;13.762;2023-06-10T07:18:09;7.97;;;6.93;;
27265;SDS011;14766;51.380;13.762;2023-06-10T07:20:38;7.15;;;6.45;;
27265;SDS011;14766;51.380;13.762;2023-06-10T07:23:06;6.97;;;6.28;;
27265;SDS011;14766;51.380;13.762;2023-06-10T07:25:33;7.45;;;6.65;;
27265;SDS011;14766;51.380;13.762;2023-06-10T07:28:01;7.13;;;6.18;;
27265;SDS011;14766;51.380;13.762;2023-06-10T07:30:28;8.57;;;5.78;;
27265;SDS011;14766;51.380;13.762;2023-06-10T07:32:55;6.35;;;5.75;;
27265;SDS011;14766;51.380;13.762;2023-06-10T07:35:22;6.97;;;6.13;;
27265;SDS011;14766;51.380;13.762;2023-06-10T07:37:50;6.90;;;6.00;;
27265;SDS011;14766;51.380;13.762;2023-06-10T07:40:17;6.93;;;6.28;;
27265;SDS011;14766;51.380;13.762;2023-06-10T07:42:44;6.45;;;5.85;;
27265;SDS011;14766;51.380;13.762;2023-06-10T07:45:11;8.98;;;5.68;;
27265;SDS011;14766;51.380;13.762;2023-06-10T07:47:38;6.28;;;5.68;;
27265;SDS011;14766;51.380;13.762;2023-06-10T07:50:06;6.45;;;5.85;;
27265;SDS011;14766;51.380;13.762;2023-06-10T07:52:33;7.50;;;5.53;;
27265;SDS011;14766;51.380;13.762;2023-06-10T07:55:00;6.10;;;5.50;;
27265;SDS011;14766;51.380;13.762;2023-06-10T07:57:27;8.23;;;6.00;;
27265;SDS011;14766;51.380;13.762;2023-06-10T07:59:54;6.07;;;5.50;;
27265;SDS011;14766;51.380;13.762;2023-06-10T08:02:24;5.70;;;5.05;;
27265;SDS011;14766;51.380;13.762;2023-06-10T08:04:51;9.07;;;5.38;;
27265;SDS011;14766;51.380;13.762;2023-06-10T08:07:18;6.50;;;5.80;;
27265;SDS011;14766;51.380;13.762;2023-06-10T08:09:49;6.43;;;5.82;;
27265;SDS011;14766;51.380;13.762;2023-06-10T08:12:16;5.45;;;5.05;;
27265;SDS011;14766;51.380;13.762;2023-06-10T08:14:44;6.43;;;5.15;;
27265;SDS011;14766;51.380;13.762;2023-06-10T08:17:11;6.25;;;5.63;;
27265;SDS011;14766;51.380;13.762;2023-06-10T08:19:38;6.30;;;5.40;;
27265;SDS011;14766;51.380;13.762;2023-06-10T08:22:05;7.65;;;5.30;;
27265;SDS011;14766;51.380;13.762;2023-06-10T08:24:32;5.93;;;5.30;;
27265;SDS011;14766;51.380;13.762;2023-06-10T08:26:59;6.05;;;5.10;;
27265;SDS011;14766;51.380;13.762;2023-06-10T08:29:28;6.20;;;5.60;;
27265;SDS011;14766;51.380;13.762;2023-06-10T08:31:57;6.15;;;5.63;;
27265;SDS011;14766;51.380;13.762;2023-06-10T08:34:25;5.30;;;4.90;;
27265;SDS011;14766;51.380;13.762;2023-06-10T08:36:52;5.88;;;5.28;;
27265;SDS011;14766;51.380;13.762;2023-06-10T08:39:21;6.80;;;5.85;;
27265;SDS011;14766;51.380;13.762;2023-06-10T08:42:11;5.57;;;5.07;;
27265;SDS011;14766;51.380;13.762;2023-06-10T08:44:48;8.73;;;5.47;;
27265;SDS011;14766;51.380;13.762;2023-06-10T08:47:22;5.63;;;5.13;;
27265;SDS011;14766;51.380;13.762;2023-06-10T08:49:51;6.75;;;5.47;;
27265;SDS011;14766;51.380;13.762;2023-06-10T08:52:20;6.15;;;5.20;;
27265;SDS011;14766;51.380;13.762;2023-06-10T08:54:48;5.88;;;5.28;;
27265;SDS011;14766;51.380;13.762;2023-06-10T08:57:21;5.80;;;5.20;;
27265;SDS011;14766;51.380;13.762;2023-06-10T08:59:49;6.10;;;5.45;;
27265;SDS011;14766;51.380;13.762;2023-06-10T09:02:18;5.65;;;4.82;;
27265;SDS011;14766;51.380;13.762;2023-06-10T09:04:47;6.13;;;5.18;;
27265;SDS011;14766;51.380;13.762;2023-06-10T09:07:15;5.18;;;4.60;;
27265;SDS011;14766;51.380;13.762;2023-06-10T09:09:44;5.85;;;4.72;;
27265;SDS011;14766;51.380;13.762;2023-06-10T09:12:12;6.22;;;4.75;;
27265;SDS011;14766;51.380;13.762;2023-06-10T09:14:41;5.35;;;4.30;;
27265;SDS011;14766;51.380;13.762;2023-06-10T09:17:11;5.28;;;4.70;;
27265;SDS011;14766;51.380;13.762;2023-06-10T09:19:40;4.63;;;4.22;;
27265;SDS011;14766;51.380;13.762;2023-06-10T09:22:08;4.40;;;4.00;;
27265;SDS011;14766;51.380;13.762;2023-06-10T09:24:36;9.05;;;5.15;;
27265;SDS011;14766;51.380;13.762;2023-06-10T09:27:04;4.82;;;4.30;;
27265;SDS011;14766;51.380;13.762;2023-06-10T09:29:51;6.97;;;4.50;;
27265;SDS011;14766;51.380;13.762;2023-06-10T09:32:22;4.32;;;3.92;;
27265;SDS011;14766;51.380;13.762;2023-06-10T09:34:51;5.80;;;5.00;;
27265;SDS011;14766;51.380;13.762;2023-06-10T09:37:25;7.88;;;4.53;;
27265;SDS011;14766;51.380;13.762;2023-06-10T09:40:02;4.75;;;4.35;;
27265;SDS011;14766;51.380;13.762;2023-06-10T09:42:38;6.55;;;4.80;;
27265;SDS011;14766;51.380;13.762;2023-06-10T09:45:07;5.05;;;4.55;;
27265;SDS011;14766;51.380;13.762;2023-06-10T09:47:34;7.03;;;4.57;;
27265;SDS011;14766;51.380;13.762;2023-06-10T09:50:01;8.50;;;4.65;;
27265;SDS011;14766;51.380;13.762;2023-06-10T09:52:29;4.90;;;4.32;;
27265;SDS011;14766;51.380;13.762;2023-06-10T09:55:00;5.32;;;4.80;;
27265;SDS011;14766;51.380;13.762;2023-06-10T09:57:32;5.93;;;4.68;;
27265;SDS011;14766;51.380;13.762;2023-06-10T10:00:08;4.78;;;4.38;;
27265;SDS011;14766;51.380;13.762;2023-06-10T10:02:43;5.03;;;4.00;;
27265;SDS011;14766;51.380;13.762;2023-06-10T10:05:16;6.15;;;4.70;;
27265;SDS011;14766;51.380;13.762;2023-06-10T10:07:47;5.80;;;5.20;;
27265;SDS011;14766;51.380;13.762;2023-06-10T10:10:15;5.28;;;4.78;;
27265;SDS011;14766;51.380;13.762;2023-06-10T10:12:43;5.00;;;4.50;;
27265;SDS011;14766;51.380;13.762;2023-06-10T10:15:13;4.82;;;4.40;;
27265;SDS011;14766;51.380;13.762;2023-06-10T10:18:06;5.18;;;4.28;;
27265;SDS011;14766;51.380;13.762;2023-06-10T10:20:46;5.03;;;4.60;;
27265;SDS011;14766;51.380;13.762;2023-06-10T10:23:18;4.65;;;4.25;;
27265;SDS011;14766;51.380;13.762;2023-06-10T10:25:51;4.50;;;4.18;;
27265;SDS011;14766;51.380;13.762;2023-06-10T10:28:21;4.93;;;4.47;;
27265;SDS011;14766;51.380;13.762;2023-06-10T10:30:54;5.18;;;4.78;;
27265;SDS011;14766;51.380;13.762;2023-06-10T10:33:33;4.53;;;4.13;;
27265;SDS011;14766;51.380;13.762;2023-06-10T10:36:07;5.50;;;5.00;;
27265;SDS011;14766;51.380;13.762;2023-06-10T10:38:36;5.65;;;5.03;;
27265;SDS011;14766;51.380;13.762;2023-06-10T10:41:04;5.93;;;5.40;;
27265;SDS011;14766;51.380;13.762;2023-06-10T10:43:32;8.77;;;6.75;;
27265;SDS011;14766;51.380;13.762;2023-06-10T10:46:02;6.90;;;6.18;;
27265;SDS011;14766;51.380;13.762;2023-06-10T10:48:37;8.73;;;6.75;;
27265;SDS011;14766;51.380;13.762;2023-06-10T10:51:06;9.20;;;6.43;;
27265;SDS011;14766;51.380;13.762;2023-06-10T10:53:34;6.65;;;5.68;;
27265;SDS011;14766;51.380;13.762;2023-06-10T10:56:06;7.57;;;6.45;;
27265;SDS011;14766;51.380;13.762;2023-06-10T10:58:36;7.03;;;6.43;;
27265;SDS011;14766;51.380;13.762;2023-06-10T11:01:13;6.15;;;5.55;;
27265;SDS011;14766;51.380;13.762;2023-06-10T11:03:43;7.28;;;5.85;;
27265;SDS011;14766;51.380;13.762;2023-06-10T11:06:15;6.03;;;5.53;;
27265;SDS011;14766;51.380;13.762;2023-06-10T11:11:17;9.30;;;6.05;;
27265;SDS011;14766;51.380;13.762;2023-06-10T11:16:40;7.32;;;5.13;;
27265;SDS011;14766;51.380;13.762;2023-06-10T11:19:08;8.23;;;5.93;;
27265;SDS011;14766;51.380;13.762;2023-06-10T11:21:58;6.20;;;5.60;;
27265;SDS011;14766;51.380;13.762;2023-06-10T11:24:26;7.43;;;5.07;;
27265;SDS011;14766;51.380;13.762;2023-06-10T11:26:55;5.72;;;5.18;;
27265;SDS011;14766;51.380;13.762;2023-06-10T11:29:54;5.25;;;4.72;;
27265;SDS011;14766;51.380;13.762;2023-06-10T11:32:31;4.82;;;4.38;;
27265;SDS011;14766;51.380;13.762;2023-06-10T11:35:03;5.97;;;5.10;;
27265;SDS011;14766;51.380;13.762;2023-06-10T11:37:31;5.53;;;4.60;;
27265;SDS011;14766;51.380;13.762;2023-06-10T11:39:59;5.28;;;4.32;;
27265;SDS011;14766;51.380;13.762;2023-06-10T11:42:26;6.60;;;5.10;;
27265;SDS011;14766;51.380;13.762;2023-06-10T11:44:54;7.30;;;4.57;;
27265;SDS011;14766;51.380;13.762;2023-06-10T11:47:21;5.43;;;4.47;;
27265;SDS011;14766;51.380;13.762;2023-06-10T11:49:56;5.45;;;4.60;;
27265;SDS011;14766;51.380;13.762;2023-06-10T11:52:28;7.18;;;4.82;;
27265;SDS011;14766;51.380;13.762;2023-06-10T11:55:06;6.28;;;5.22;;
27265;SDS011;14766;51.380;13.762;2023-06-10T11:57:37;5.43;;;4.93;;
27265;SDS011;14766;51.380;13.762;2023-06-10T12:00:05;5.38;;;4.70;;
27265;SDS011;14766;51.380;13.762;2023-06-10T12:02:36;6.50;;;4.88;;
27265;SDS011;14766;51.380;13.762;2023-06-10T12:05:12;5.75;;;5.18;;
27265;SDS011;14766;51.380;13.762;2023-06-10T12:07:40;6.22;;;4.70;;
27265;SDS011;14766;51.380;13.762;2023-06-10T12:10:07;6.63;;;5.18;;
27265;SDS011;14766;51.380;13.762;2023-06-10T12:15:25;8.02;;;5.68;;
27265;SDS011;14766;51.380;13.762;2023-06-10T12:17:56;6.82;;;5.20;;
27265;SDS011;14766;51.380;13.762;2023-06-10T12:20:27;5.80;;;4.78;;
27265;SDS011;14766;51.380;13.762;2023-06-10T12:22:56;5.32;;;4.72;;
27265;SDS011;14766;51.380;13.762;2023-06-10T12:25:24;6.68;;;4.70;;
27265;SDS011;14766;51.380;13.762;2023-06-10T12:27:56;5.30;;;4.47;;
27265;SDS011;14766;51.380;13.762;2023-06-10T12:30:25;4.82;;;4.40;;
27265;SDS011;14766;51.380;13.762;2023-06-10T12:32:53;5.82;;;4.60;;
27265;SDS011;14766;51.380;13.762;2023-06-10T12:35:22;6.72;;;5.82;;
27265;SDS011;14766;51.380;13.762;2023-06-10T12:38:01;5.90;;;5.30;;
27265;SDS011;14766;51.380;13.762;2023-06-10T12:40:31;5.85;;;5.03;;
27265;SDS011;14766;51.380;13.762;2023-06-10T12:43:00;5.57;;;4.82;;
27265;SDS011;14766;51.380;13.762;2023-06-10T12:45:30;4.72;;;4.18;;
27265;SDS011;14766;51.380;13.762;2023-06-10T12:48:32;6.05;;;5.25;;
27265;SDS011;14766;51.380;13.762;2023-06-10T12:50:57;5.30;;;4.80;;
27265;SDS011;14766;51.380;13.762;2023-06-10T12:53:25;4.85;;;4.45;;
27265;SDS011;14766;51.380;13.762;2023-06-10T12:55:56;6.78;;;4.65;;
27265;SDS011;14766;51.380;13.762;2023-06-10T12:58:24;5.10;;;4.70;;
27265;SDS011;14766;51.380;13.762;2023-06-10T13:00:51;9.05;;;5.35;;
27265;SDS011;14766;51.380;13.762;2023-06-10T13:03:24;6.20;;;5.00;;
27265;SDS011;14766;51.380;13.762;2023-06-10T13:05:52;5.40;;;4.90;;
27265;SDS011;14766;51.380;13.762;2023-06-10T13:08:19;4.68;;;4.28;;
27265;SDS011;14766;51.380;13.762;2023-06-10T13:10:47;5.38;;;4.88;;
27265;SDS011;14766;51.380;13.762;2023-06-10T13:13:15;5.82;;;4.78;;
27265;SDS011;14766;51.380;13.762;2023-06-10T13:15:42;6.10;;;5.18;;
27265;SDS011;14766;51.380;13.762;2023-06-10T13:18:09;4.85;;;4.25;;
27265;SDS011;14766;51.380;13.762;2023-06-10T13:20:37;5.18;;;4.68;;
27265;SDS011;14766;51.380;13.762;2023-06-10T13:23:04;4.88;;;4.40;;
27265;SDS011;14766;51.380;13.762;2023-06-10T13:25:32;4.43;;;3.88;;
27265;SDS011;14766;51.380;13.762;2023-06-10T13:27:59;5.63;;;4.50;;
27265;SDS011;14766;51.380;13.762;2023-06-10T13:30:28;4.70;;;4.30;;
27265;SDS011;14766;51.380;13.762;2023-06-10T13:32:55;4.57;;;4.18;;
27265;SDS011;14766;51.380;13.762;2023-06-10T13:35:22;6.80;;;4.28;;
27265;SDS011;14766;51.380;13.762;2023-06-10T13:37:49;6.32;;;5.10;;
27265;SDS011;14766;51.380;13.762;2023-06-10T13:40:17;9.13;;;5.15;;
27265;SDS011;14766;51.380;13.762;2023-06-10T13:42:46;5.03;;;4.53;;
27265;SDS011;14766;51.380;13.762;2023-06-10T13:45:17;6.45;;;5.35;;
27265;SDS011;14766;51.380;13.762;2023-06-10T13:47:44;5.20;;;4.70;;
27265;SDS011;14766;51.380;13.762;2023-06-10T13:50:12;5.07;;;4.57;;
27265;SDS011;14766;51.380;13.762;2023-06-10T13:52:40;5.63;;;4.70;;
27265;SDS011;14766;51.380;13.762;2023-06-10T13:55:07;5.53;;;5.03;;
27265;SDS011;14766;51.380;13.762;2023-06-10T13:57:35;6.25;;;4.95;;
27265;SDS011;14766;51.380;13.762;2023-06-10T14:00:02;5.22;;;4.72;;
27265;SDS011;14766;51.380;13.762;2023-06-10T14:02:29;6.32;;;5.13;;
27265;SDS011;14766;51.380;13.762;2023-06-10T14:04:57;7.07;;;5.72;;
27265;SDS011;14766;51.380;13.762;2023-06-10T14:07:24;8.07;;;6.53;;
27265;SDS011;14766;51.380;13.762;2023-06-10T14:09:52;6.28;;;5.20;;
27265;SDS011;14766;51.380;13.762;2023-06-10T14:12:20;5.38;;;4.88;;
27265;SDS011;14766;51.380;13.762;2023-06-10T14:14:47;5.03;;;4.45;;
27265;SDS011;14766;51.380;13.762;2023-06-10T14:17:14;7.55;;;4.85;;
27265;SDS011;14766;51.380;13.762;2023-06-10T14:19:43;5.68;;;4.57;;
27265;SDS011;14766;51.380;13.762;2023-06-10T14:22:10;5.20;;;4.70;;
27265;SDS011;14766;51.380;13.762;2023-06-10T14:24:38;5.72;;;4.85;;
27265;SDS011;14766;51.380;13.762;2023-06-10T14:27:05;5.38;;;4.88;;
27265;SDS011;14766;51.380;13.762;2023-06-10T14:29:35;5.47;;;4.97;;
27265;SDS011;14766;51.380;13.762;2023-06-10T14:32:03;5.15;;;4.75;;
27265;SDS011;14766;51.380;13.762;2023-06-10T14:34:34;5.90;;;4.88;;
27265;SDS011;14766;51.380;13.762;2023-06-10T14:37:02;5.57;;;4.20;;
27265;SDS011;14766;51.380;13.762;2023-06-10T14:39:31;4.55;;;4.15;;
27265;SDS011;14766;51.380;13.762;2023-06-10T14:41:58;4.93;;;4.43;;
27265;SDS011;14766;51.380;13.762;2023-06-10T14:44:26;8.57;;;5.05;;
27265;SDS011;14766;51.380;13.762;2023-06-10T14:46:53;5.40;;;4.35;;
27265;SDS011;14766;51.380;13.762;2023-06-10T14:49:22;5.03;;;3.78;;
27265;SDS011;14766;51.380;13.762;2023-06-10T14:51:49;5.28;;;3.97;;
27265;SDS011;14766;51.380;13.762;2023-06-10T14:54:16;5.22;;;4.72;;
27265;SDS011;14766;51.380;13.762;2023-06-10T14:56:44;9.00;;;4.93;;
27265;SDS011;14766;51.380;13.762;2023-06-10T14:59:12;9.10;;;4.95;;